Time;durP1;ratioP1;P1;durP2;ratioP2;P2;SDS_P1;SDS_P2;PMS_P1;PMS_P2;Temp;Humidity;BMP_temperature;BMP_pressure;BME280_temperature;BME280_humidity;BME280_pressure;Samples;Min_cycle;Max_cycle;Signal;HPM_P1;HPM_P2
2023/12/24 00:00:13;;;;;;;7.32;3.08;;;;;;;9.74;100.00;100688.34;5066624;28;20122;-70
2023/12/24 00:02:40;;;;;;;6.95;3.20;;;;;;;9.73;100.00;100689.22;5052247;28;20055;-70
2023/12/24 00:05:07;;;;;;;6.30;3.10;;;;;;;9.73;100.00;100678.72;5062166;28;20488;-70
2023/12/24 00:07:35;;;;;;;5.05;3.10;;;;;;;9.74;100.00;100676.06;5081082;28;20048;-70
2023/12/24 00:10:02;;;;;;;7.53;3.30;;;;;;;9.77;100.00;100683.00;5060443;28;20032;-70
2023/12/24 00:12:29;;;;;;;6.78;3.30;;;;;;;9.78;100.00;100656.59;5064357;28;20101;-71
2023/12/24 00:14:56;;;;;;;7.32;3.70;;;;;;;9.79;100.00;100675.91;5065481;28;20135;-70
2023/12/24 00:17:23;;;;;;;8.25;3.65;;;;;;;9.78;100.00;100682.94;5065256;28;20044;-69
2023/12/24 00:19:50;;;;;;;8.00;3.60;;;;;;;9.81;100.00;100683.75;5081524;28;20033;-70
2023/12/24 00:22:17;;;;;;;7.10;3.40;;;;;;;9.81;100.00;100689.03;5066542;28;20444;-70
2023/12/24 00:24:45;;;;;;;7.07;3.78;;;;;;;9.81;100.00;100689.03;5067137;28;20049;-70
2023/12/24 00:27:12;;;;;;;6.68;3.10;;;;;;;9.80;100.00;100698.69;5057299;28;20033;-71
2023/12/24 00:29:39;;;;;;;6.60;3.10;;;;;;;9.83;100.00;100703.84;5081613;28;20404;-70
2023/12/24 00:32:09;;;;;;;5.13;2.78;;;;;;;9.83;100.00;100701.22;5063198;28;20110;-70
2023/12/24 00:34:36;;;;;;;3.72;2.80;;;;;;;9.83;100.00;100703.84;5064516;28;20381;-70
2023/12/24 00:37:03;;;;;;;6.35;3.20;;;;;;;9.84;100.00;100694.19;5076533;28;20053;-71
2023/12/24 00:39:30;;;;;;;6.38;3.33;;;;;;;9.81;100.00;100687.28;5066333;28;20045;-71
2023/12/24 00:41:58;;;;;;;6.60;3.40;;;;;;;9.81;100.00;100683.75;5081733;28;20110;-70
2023/12/24 00:44:25;;;;;;;7.60;4.07;;;;;;;9.81;100.00;100671.47;5052941;28;20056;-70
2023/12/24 00:46:52;;;;;;;8.00;4.20;;;;;;;9.81;100.00;100662.69;5067947;28;20122;-71
2023/12/24 00:49:19;;;;;;;7.85;4.53;;;;;;;9.82;100.00;100649.47;5065860;28;20518;-71
2023/12/24 00:51:46;;;;;;;7.35;4.60;;;;;;;9.83;100.00;100645.09;5096518;28;20084;-70
2023/12/24 00:54:13;;;;;;;7.55;4.80;;;;;;;9.83;100.00;100624.88;5046272;28;20068;-70
2023/12/24 00:56:40;;;;;;;6.45;4.40;;;;;;;9.84;100.00;100628.38;5051810;28;20037;-70
2023/12/24 00:59:07;;;;;;;8.00;4.45;;;;;;;9.83;100.00;100609.06;5081685;28;20044;-70
2023/12/24 01:01:34;;;;;;;6.63;4.57;;;;;;;9.84;100.00;100602.06;5082213;28;20044;-71
2023/12/24 01:04:01;;;;;;;7.15;4.38;;;;;;;9.85;100.00;100595.88;5064300;28;20131;-70
2023/12/24 01:06:29;;;;;;;8.25;4.05;;;;;;;9.83;100.00;100601.16;5064286;28;20186;-71
2023/12/24 01:08:56;;;;;;;5.45;3.38;;;;;;;9.83;100.00;100574.00;5081192;28;20049;-70
2023/12/24 01:11:23;;;;;;;6.60;3.95;;;;;;;9.80;100.00;100574.97;5064051;28;20579;-71
2023/12/24 01:13:50;;;;;;;9.90;3.40;;;;;;;9.79;100.00;100562.72;5065458;28;20206;-71
2023/12/24 01:16:17;;;;;;;5.25;3.33;;;;;;;9.80;100.00;100553.91;5066343;28;20503;-70
2023/12/24 01:18:46;;;;;;;4.95;2.72;;;;;;;9.77;100.00;100565.38;5065495;28;20048;-70
2023/12/24 01:21:13;;;;;;;6.45;2.60;;;;;;;9.79;100.00;100566.19;5054608;28;20524;-70
2023/12/24 01:23:40;;;;;;;4.28;2.20;;;;;;;9.79;99.96;100578.50;5057782;28;20512;-70
2023/12/24 01:26:07;;;;;;;4.60;2.15;;;;;;;9.79;99.95;100576.72;5062873;28;20052;-70
2023/12/24 01:28:35;;;;;;;5.90;1.70;;;;;;;9.81;99.62;100570.53;5084103;28;20045;-70
2023/12/24 01:31:02;;;;;;;5.40;1.77;;;;;;;9.82;100.00;100564.38;5065999;28;20064;-70
2023/12/24 01:33:30;;;;;;;4.25;1.88;;;;;;;9.85;99.19;100573.03;5068756;28;20571;-70
2023/12/24 01:35:57;;;;;;;5.35;1.50;;;;;;;9.85;98.56;100585.34;5082412;28;20139;-70
2023/12/24 01:38:24;;;;;;;4.55;1.48;;;;;;;9.84;99.17;100573.94;5069292;28;20500;-70
2023/12/24 01:40:51;;;;;;;2.35;1.30;;;;;;;9.84;99.55;100573.94;5068340;28;20496;-70
2023/12/24 01:43:18;;;;;;;6.78;1.75;;;;;;;9.84;99.78;100570.47;5069787;28;20550;-70
2023/12/24 01:45:45;;;;;;;5.22;1.75;;;;;;;9.85;99.53;100569.56;5069190;28;20052;-71
2023/12/24 01:48:17;;;;;;;4.15;1.65;;;;;;;9.85;99.66;100588.84;5070803;28;20044;-70
2023/12/24 01:50:47;;;;;;;5.18;1.80;;;;;;;9.82;99.94;100581.00;5083901;28;20036;-70
2023/12/24 01:53:17;;;;;;;7.15;1.90;;;;;;;9.82;100.00;100583.66;5069216;28;20055;-70
2023/12/24 01:55:47;;;;;;;4.93;1.80;;;;;;;9.78;100.00;100587.31;5086589;28;20496;-70
2023/12/24 01:58:15;;;;;;;5.32;2.05;;;;;;;9.72;100.00;100591.00;5081035;28;20049;-71
2023/12/24 02:00:43;;;;;;;4.32;1.83;;;;;;;9.69;100.00;100590.22;5065294;28;20041;-72
2023/12/24 02:03:10;;;;;;;6.15;2.00;;;;;;;9.62;100.00;100593.03;5067299;28;20433;-72
2023/12/24 02:05:37;;;;;;;8.60;2.35;;;;;;;9.59;100.00;100579.97;5078248;28;20045;-70
2023/12/24 02:08:07;;;;;;;5.22;1.90;;;;;;;9.52;100.00;100573.16;5082885;28;20040;-70
2023/12/24 02:10:35;;;;;;;9.07;1.80;;;;;;;9.47;100.00;100569.81;5084447;28;20088;-72
2023/12/24 02:13:02;;;;;;;7.18;1.92;;;;;;;9.41;100.00;100572.66;5084888;28;20072;-71
2023/12/24 02:15:30;;;;;;;6.22;2.08;;;;;;;9.37;100.00;100560.47;5084563;28;20037;-71
2023/12/24 02:17:59;;;;;;;7.63;2.17;;;;;;;9.32;100.00;100557.97;5084582;28;20571;-71
2023/12/24 02:20:28;;;;;;;9.15;2.22;;;;;;;9.30;100.00;100555.41;5067314;28;20055;-71
2023/12/24 02:22:55;;;;;;;5.03;2.10;;;;;;;9.27;100.00;100547.59;5084585;28;20041;-71
2023/12/24 02:25:23;;;;;;;6.43;2.25;;;;;;;9.25;100.00;100556.44;5083830;28;20048;-70
2023/12/24 02:28:09;;;;;;;9.80;2.35;;;;;;;9.21;100.00;100549.53;5067644;28;20033;-71
2023/12/24 02:30:43;;;;;;;8.98;2.20;;;;;;;9.19;100.00;100552.22;5069210;28;20131;-71
2023/12/24 02:33:15;;;;;;;6.82;2.25;;;;;;;9.15;100.00;100542.69;5068385;28;20863;-71
2023/12/24 02:35:45;;;;;;;5.63;2.55;;;;;;;9.13;100.00;100539.22;5068463;28;20603;-72
2023/12/24 02:38:14;;;;;;;8.73;2.17;;;;;;;9.10;100.00;100536.72;5065646;28;20044;-71
2023/12/24 02:40:41;;;;;;;5.10;2.10;;;;;;;9.09;100.00;100522.69;5083905;28;20051;-71
2023/12/24 02:43:11;;;;;;;7.43;2.38;;;;;;;9.08;100.00;100522.75;5084572;28;20362;-71
2023/12/24 02:45:39;;;;;;;9.18;2.38;;;;;;;9.05;100.00;100515.81;5068147;28;20072;-71
2023/12/24 02:48:07;;;;;;;12.88;2.45;;;;;;;9.06;100.00;100517.50;5083689;28;20041;-71
2023/12/24 02:50:34;;;;;;;8.85;2.60;;;;;;;9.06;100.00;100508.78;5068764;28;20101;-71
2023/12/24 02:53:01;;;;;;;8.55;2.50;;;;;;;9.06;100.00;100500.88;5065823;28;20040;-71
2023/12/24 02:55:29;;;;;;;7.47;2.70;;;;;;;9.05;100.00;100502.66;5084788;28;20393;-73
2023/12/24 02:57:56;;;;;;;7.75;2.60;;;;;;;9.06;100.00;100498.25;5059739;28;20041;-71
2023/12/24 03:00:23;;;;;;;6.60;2.70;;;;;;;9.08;100.00;100494.66;5068062;28;20044;-71
2023/12/24 03:02:51;;;;;;;7.88;2.72;;;;;;;9.08;100.00;100486.78;5066729;28;20044;-71
2023/12/24 03:05:18;;;;;;;9.13;2.75;;;;;;;9.11;100.00;100486.69;5066778;28;20072;-71
2023/12/24 03:07:46;;;;;;;6.75;2.55;;;;;;;9.12;100.00;100480.53;5066520;28;20047;-71
2023/12/24 03:10:13;;;;;;;8.88;2.63;;;;;;;9.16;100.00;100470.78;5056647;28;20091;-70
2023/12/24 03:12:40;;;;;;;6.97;2.58;;;;;;;9.19;100.00;100482.97;5076523;28;20049;-70
2023/12/24 03:15:08;;;;;;;5.45;2.53;;;;;;;9.20;100.00;100477.69;5068555;28;20052;-70
2023/12/24 03:17:35;;;;;;;7.22;3.00;;;;;;;9.22;100.00;100475.00;5066104;28;20055;-70
2023/12/24 03:20:03;;;;;;;6.43;2.97;;;;;;;9.24;100.00;100468.75;5068273;28;20048;-70
2023/12/24 03:22:31;;;;;;;9.43;2.85;;;;;;;9.26;100.00;100461.69;5064911;28;20040;-71
2023/12/24 03:24:59;;;;;;;7.82;2.60;;;;;;;9.29;100.00;100460.72;5060861;28;20554;-71
2023/12/24 03:27:26;;;;;;;6.07;2.70;;;;;;;9.30;100.00;100454.56;5065001;28;20040;-70
2023/12/24 03:29:53;;;;;;;6.05;3.05;;;;;;;9.29;100.00;100458.09;5084605;28;20063;-71
2023/12/24 03:32:22;;;;;;;8.45;3.00;;;;;;;9.29;100.00;100466.00;5065322;28;20118;-70
2023/12/24 03:34:49;;;;;;;4.47;2.55;;;;;;;9.29;100.00;100463.34;5066182;28;20044;-71
2023/12/24 03:37:16;;;;;;;5.80;2.50;;;;;;;9.29;100.00;100455.47;5062099;28;20131;-71
2023/12/24 03:39:43;;;;;;;6.13;2.38;;;;;;;9.28;100.00;100452.00;5082711;28;20412;-70
2023/12/24 03:42:11;;;;;;;5.45;2.35;;;;;;;9.29;100.00;100451.09;5082907;28;20554;-71
2023/12/24 03:44:38;;;;;;;4.35;2.28;;;;;;;9.29;100.00;100453.72;5082555;28;20129;-71
2023/12/24 03:47:05;;;;;;;4.68;2.20;;;;;;;9.29;100.00;100440.56;5067967;28;20118;-71
2023/12/24 03:49:33;;;;;;;5.90;1.98;;;;;;;9.29;100.00;100443.19;5064567;28;20051;-71
2023/12/24 03:52:00;;;;;;;3.95;1.75;;;;;;;9.29;100.00;100437.06;5080584;28;20045;-70
2023/12/24 03:54:27;;;;;;;3.58;1.77;;;;;;;9.30;100.00;100429.13;5100116;28;20036;-71
2023/12/24 03:56:54;;;;;;;2.50;1.50;;;;;;;9.32;100.00;100427.28;5069229;28;20551;-71
2023/12/24 03:59:21;;;;;;;3.25;1.63;;;;;;;9.31;100.00;100430.84;5081742;28;20048;-71
2023/12/24 04:01:48;;;;;;;3.40;1.70;;;;;;;9.32;100.00;100429.94;5065647;28;20040;-72
2023/12/24 04:04:15;;;;;;;2.95;1.50;;;;;;;9.35;100.00;100429.00;5064465;28;20044;-71
2023/12/24 04:06:46;;;;;;;2.78;1.48;;;;;;;9.36;100.00;100432.47;5063697;28;20098;-71
2023/12/24 04:09:13;;;;;;;3.40;1.50;;;;;;;9.38;100.00;100425.41;5065747;28;20051;-72
2023/12/24 04:11:40;;;;;;;3.05;1.25;;;;;;;9.39;100.00;100419.22;5081870;28;20115;-72
2023/12/24 04:14:08;;;;;;;4.95;1.30;;;;;;;9.39;100.00;100416.59;5065735;28;20055;-72
2023/12/24 04:16:35;;;;;;;3.88;1.25;;;;;;;9.39;100.00;100409.53;5066613;28;20105;-72
2023/12/24 04:19:02;;;;;;;2.78;1.20;;;;;;;9.41;100.00;100401.63;5063724;28;20040;-72
2023/12/24 04:21:33;;;;;;;3.60;1.95;;;;;;;9.41;100.00;100404.25;5082425;28;20036;-72
2023/12/24 04:24:00;;;;;;;1.55;1.00;;;;;;;9.43;100.00;100412.94;5065814;28;20447;-72
2023/12/24 04:26:27;;;;;;;1.65;1.00;;;;;;;9.43;100.00;100418.19;5066523;28;20448;-72
2023/12/24 04:28:54;;;;;;;1.85;1.00;;;;;;;9.42;100.00;100409.47;5099093;28;20041;-72
2023/12/24 04:31:22;;;;;;;2.13;0.93;;;;;;;9.45;100.00;100403.22;5065220;28;20574;-72
2023/12/24 04:33:49;;;;;;;1.38;0.90;;;;;;;9.46;100.00;100412.84;5082019;28;20093;-72
2023/12/24 04:36:19;;;;;;;1.05;0.70;;;;;;;9.45;100.00;100401.47;5070192;28;20615;-73
2023/12/24 04:38:47;;;;;;;1.00;0.80;;;;;;;9.46;100.00;100403.16;5059804;28;20531;-72
2023/12/24 04:41:18;;;;;;;2.83;0.60;;;;;;;9.47;100.00;100404.03;5062762;28;20098;-73
2023/12/24 04:43:45;;;;;;;1.92;0.70;;;;;;;9.46;100.00;100400.53;5066574;28;20134;-71
2023/12/24 04:46:13;;;;;;;2.60;0.90;;;;;;;9.47;100.00;100397.00;5080826;28;20052;-70
2023/12/24 04:48:40;;;;;;;1.23;0.60;;;;;;;9.44;100.00;100390.97;5081023;28;20074;-70
2023/12/24 04:51:09;;;;;;;0.93;0.60;;;;;;;9.50;100.00;100395.19;5062857;28;20041;-70
2023/12/24 04:53:36;;;;;;;0.82;0.50;;;;;;;9.51;100.00;100399.53;5063111;28;20049;-71
2023/12/24 04:56:04;;;;;;;2.45;0.50;;;;;;;9.52;100.00;100393.38;5081111;28;20048;-72
2023/12/24 04:58:31;;;;;;;1.10;0.50;;;;;;;9.51;100.00;100389.88;5080950;28;20050;-71
2023/12/24 05:01:01;;;;;;;0.50;0.50;;;;;;;9.53;100.00;100395.09;5068203;28;20118;-72
2023/12/24 05:03:31;;;;;;;0.77;0.50;;;;;;;9.51;100.00;100389.88;5081970;28;20029;-72
2023/12/24 05:05:58;;;;;;;1.00;0.50;;;;;;;9.54;100.00;100391.56;5084850;28;20045;-71
2023/12/24 05:08:25;;;;;;;0.50;0.40;;;;;;;9.56;100.00;100387.94;5085079;28;20597;-71
2023/12/24 05:10:53;;;;;;;0.50;0.35;;;;;;;9.56;100.00;100387.09;5069030;28;20032;-71
2023/12/24 05:13:21;;;;;;;0.95;0.40;;;;;;;9.56;100.00;100382.69;5085588;28;20497;-71
2023/12/24 05:15:48;;;;;;;0.40;0.40;;;;;;;9.58;100.00;100387.88;5060203;28;20628;-71
2023/12/24 05:18:16;;;;;;;0.73;0.40;;;;;;;9.58;100.00;100380.00;5071121;28;20044;-71
2023/12/24 05:20:43;;;;;;;0.30;0.28;;;;;;;9.60;100.00;100372.91;5085752;28;20512;-72
2023/12/24 05:23:10;;;;;;;0.35;0.32;;;;;;;9.59;100.00;100371.19;5067499;28;20508;-71
2023/12/24 05:25:37;;;;;;;0.75;0.40;;;;;;;9.60;100.00;100371.16;5069760;28;20052;-70
2023/12/24 05:28:05;;;;;;;0.70;0.40;;;;;;;9.60;100.00;100368.53;5085945;28;20135;-73
2023/12/24 05:30:34;;;;;;;0.60;0.43;;;;;;;9.60;100.00;100373.78;5085550;28;20041;-71
2023/12/24 05:33:01;;;;;;;0.52;0.40;;;;;;;9.60;100.00;100373.78;5067435;28;20049;-71
2023/12/24 05:35:29;;;;;;;0.73;0.50;;;;;;;9.58;100.00;100372.09;5063993;28;20037;-71
2023/12/24 05:37:56;;;;;;;1.60;0.40;;;;;;;9.59;100.00;100379.97;5100215;27;20097;-71
2023/12/24 05:40:23;;;;;;;0.50;0.40;;;;;;;9.57;100.00;100379.16;5046721;28;20055;-71
2023/12/24 05:42:50;;;;;;;0.50;0.40;;;;;;;9.57;100.00;100384.41;5058047;28;20116;-71
2023/12/24 05:45:17;;;;;;;0.50;0.50;;;;;;;9.58;100.00;100380.88;5083964;28;20095;-71
2023/12/24 05:47:44;;;;;;;0.73;0.50;;;;;;;9.59;100.00;100385.22;5069443;28;20039;-71
2023/12/24 05:50:12;;;;;;;0.43;0.40;;;;;;;9.59;100.00;100369.44;5068635;28;20117;-73
2023/12/24 05:52:41;;;;;;;0.63;0.50;;;;;;;9.60;100.00;100373.78;5068085;28;20035;-72
2023/12/24 05:55:10;;;;;;;0.50;0.50;;;;;;;9.62;100.00;100373.72;5081984;28;20110;-71
2023/12/24 05:57:37;;;;;;;0.50;0.50;;;;;;;9.62;100.00;100368.47;5069505;28;20090;-71
2023/12/24 06:00:06;;;;;;;0.40;0.40;;;;;;;9.62;100.00;100371.09;5085336;28;20575;-71
2023/12/24 06:02:40;;;;;;;0.45;0.40;;;;;;;9.63;100.00;100370.19;5082298;28;20102;-71
2023/12/24 06:05:08;;;;;;;0.80;0.50;;;;;;;9.64;100.00;100367.50;5066414;28;20082;-71
2023/12/24 06:07:35;;;;;;;0.60;0.40;;;;;;;9.65;100.00;100365.75;5070339;28;20045;-71
2023/12/24 06:10:02;;;;;;;0.40;0.30;;;;;;;9.65;100.00;100365.75;5068663;28;20062;-70
2023/12/24 06:12:30;;;;;;;0.43;0.43;;;;;;;9.68;100.00;100362.97;5066532;28;20420;-71
2023/12/24 06:14:58;;;;;;;0.95;0.52;;;;;;;9.66;100.00;100362.19;5069749;28;20040;-71
2023/12/24 06:17:25;;;;;;;0.52;0.40;;;;;;;9.68;100.00;100373.50;5067415;28;20048;-72
2023/12/24 06:19:52;;;;;;;0.30;0.30;;;;;;;9.69;100.00;100358.59;5083648;28;20051;-71
2023/12/24 06:22:20;;;;;;;0.60;0.50;;;;;;;9.70;100.00;100366.44;5058962;28;20044;-71
2023/12/24 06:24:47;;;;;;;0.90;0.47;;;;;;;9.72;100.00;100361.09;5071916;28;20660;-71
2023/12/24 06:27:14;;;;;;;0.50;0.50;;;;;;;9.74;100.00;100361.91;5069157;28;20045;-71
2023/12/24 06:29:41;;;;;;;0.40;0.40;;;;;;;9.72;100.00;100358.47;5064088;28;20098;-72
2023/12/24 06:32:08;;;;;;;0.35;0.35;;;;;;;9.71;100.00;100359.41;5066286;28;20449;-72
2023/12/24 06:34:35;;;;;;;0.70;0.50;;;;;;;9.72;100.00;100363.72;5068602;28;20052;-71
2023/12/24 06:37:02;;;;;;;0.40;0.40;;;;;;;9.72;100.00;100354.06;5057444;28;20128;-71
2023/12/24 06:39:29;;;;;;;0.75;0.55;;;;;;;9.73;100.00;100354.94;5065824;28;20200;-72
2023/12/24 06:41:56;;;;;;;0.80;0.55;;;;;;;9.74;100.00;100348.75;5082573;28;20044;-71
2023/12/24 06:44:23;;;;;;;0.50;0.50;;;;;;;9.76;100.00;100349.56;5068677;28;20135;-72
2023/12/24 06:46:50;;;;;;;0.90;0.60;;;;;;;9.75;100.00;100348.72;5050026;28;20048;-71
2023/12/24 06:49:19;;;;;;;0.50;0.50;;;;;;;9.76;100.00;100341.66;5068911;28;20101;-71
2023/12/24 06:51:46;;;;;;;1.25;0.73;;;;;;;9.78;100.00;100345.13;5078868;28;20053;-71
2023/12/24 06:54:13;;;;;;;0.60;0.50;;;;;;;9.79;100.00;100346.84;5066365;28;20420;-71
2023/12/24 06:56:40;;;;;;;0.82;0.65;;;;;;;9.80;100.00;100345.91;5068272;28;20036;-70
2023/12/24 06:59:07;;;;;;;0.63;0.60;;;;;;;9.79;100.00;100349.47;5067988;28;20094;-71
2023/12/24 07:01:34;;;;;;;0.60;0.60;;;;;;;9.79;100.00;100341.56;5067612;28;20429;-71
2023/12/24 07:04:01;;;;;;;0.50;0.50;;;;;;;9.79;100.00;100342.41;5067526;28;20048;-71
2023/12/24 07:06:28;;;;;;;0.80;0.63;;;;;;;9.82;100.00;100346.69;5083069;28;20071;-71
2023/12/24 07:08:55;;;;;;;0.93;0.60;;;;;;;9.82;100.00;100354.59;5067756;28;20051;-71
2023/12/24 07:11:23;;;;;;;0.60;0.60;;;;;;;9.82;100.00;100351.97;5063723;28;20145;-71
2023/12/24 07:13:50;;;;;;;0.70;0.70;;;;;;;9.84;100.00;100355.41;5066161;28;20041;-71
2023/12/24 07:16:17;;;;;;;1.48;0.70;;;;;;;9.86;100.00;100344.84;5082461;28;20048;-71
2023/12/24 07:18:44;;;;;;;0.70;0.60;;;;;;;9.86;100.00;100343.06;5066609;28;20453;-72
2023/12/24 07:21:11;;;;;;;0.75;0.73;;;;;;;9.86;100.00;100334.31;5067274;28;20051;-72
2023/12/24 07:23:38;;;;;;;0.77;0.70;;;;;;;9.89;100.00;100334.19;5065045;28;20043;-72
2023/12/24 07:26:06;;;;;;;1.80;0.90;;;;;;;9.88;100.00;100337.72;5066443;28;20126;-71
2023/12/24 07:28:34;;;;;;;0.70;0.70;;;;;;;9.89;100.00;100340.34;5065911;28;20045;-71
2023/12/24 07:31:09;;;;;;;0.75;0.73;;;;;;;9.88;100.00;100348.25;5048824;28;20102;-71
2023/12/24 07:33:36;;;;;;;0.70;0.70;;;;;;;9.91;100.00;100348.16;5070030;28;20044;-71
2023/12/24 07:36:04;;;;;;;0.80;0.70;;;;;;;9.90;100.00;100344.69;5074964;28;20063;-71
2023/12/24 07:38:31;;;;;;;1.15;0.77;;;;;;;9.93;100.00;100341.91;5061835;28;20457;-71
2023/12/24 07:40:58;;;;;;;0.88;0.75;;;;;;;9.94;100.00;100342.81;5082375;28;20404;-71
2023/12/24 07:43:27;;;;;;;0.80;0.80;;;;;;;9.95;100.00;100344.53;5081415;28;20969;-71
2023/12/24 07:45:54;;;;;;;1.00;0.88;;;;;;;9.94;100.00;100342.81;5063320;28;20056;-71
2023/12/24 07:48:21;;;;;;;1.05;0.75;;;;;;;9.95;100.00;100344.53;5075492;28;20492;-71
2023/12/24 07:50:48;;;;;;;0.70;0.70;;;;;;;9.94;100.00;100330.47;5076210;28;20063;-71
2023/12/24 07:53:15;;;;;;;0.80;0.80;;;;;;;9.98;100.00;100336.50;5088452;28;20041;-72
2023/12/24 07:55:42;;;;;;;0.63;0.63;;;;;;;9.98;100.00;100340.91;5061089;28;20040;-72
2023/12/24 07:58:09;;;;;;;0.70;0.70;;;;;;;9.99;100.00;100338.22;5065759;28;20041;-71
2023/12/24 08:00:36;;;;;;;1.10;0.98;;;;;;;10.02;100.00;100332.84;5067240;28;20544;-73
2023/12/24 08:03:03;;;;;;;1.10;1.00;;;;;;;10.04;100.00;100331.03;5080508;28;20415;-75
2023/12/24 08:05:31;;;;;;;0.85;0.70;;;;;;;10.05;100.00;100327.47;5056887;28;20127;-73
2023/12/24 08:07:58;;;;;;;0.93;0.75;;;;;;;10.07;100.00;100330.03;5082188;28;20055;-72
2023/12/24 08:10:26;;;;;;;1.00;0.90;;;;;;;10.08;100.00;100318.59;5054317;28;20040;-71
2023/12/24 08:12:53;;;;;;;1.52;0.80;;;;;;;10.10;100.00;100322.88;5063631;28;20039;-73
2023/12/24 08:15:33;;;;;;;0.70;0.68;;;;;;;10.13;100.00;100331.59;5066479;28;20104;-72
2023/12/24 08:18:01;;;;;;;0.75;0.65;;;;;;;10.17;100.00;100327.94;5061397;28;20588;-70
2023/12/24 08:20:28;;;;;;;1.05;0.73;;;;;;;10.19;100.00;100318.19;5064758;28;20055;-71
2023/12/24 08:22:55;;;;;;;0.73;0.60;;;;;;;10.20;100.00;100333.97;5050438;28;20059;-71
2023/12/24 08:25:22;;;;;;;0.70;0.70;;;;;;;10.21;100.00;100333.03;5065847;28;20048;-72
2023/12/24 08:27:50;;;;;;;0.85;0.70;;;;;;;10.22;100.00;100334.75;5048668;28;20041;-71
2023/12/24 08:30:18;;;;;;;1.02;0.60;;;;;;;10.22;100.00;100324.22;5057695;28;20051;-72
2023/12/24 08:32:46;;;;;;;0.50;0.50;;;;;;;10.24;100.00;100321.53;5066740;28;20484;-71
2023/12/24 08:35:13;;;;;;;0.75;0.50;;;;;;;10.28;100.00;100317.00;5065996;28;20048;-71
2023/12/24 08:37:40;;;;;;;0.50;0.50;;;;;;;10.26;100.00;100319.69;5067379;28;20040;-72
2023/12/24 08:40:08;;;;;;;0.75;0.60;;;;;;;10.26;100.00;100312.63;5084158;28;20274;-72
2023/12/24 08:42:35;;;;;;;2.25;0.50;;;;;;;10.27;100.00;100318.78;5069030;28;20118;-72
2023/12/24 08:45:03;;;;;;;0.93;0.43;;;;;;;10.32;100.00;100310.72;5060146;28;20124;-71
2023/12/24 08:47:30;;;;;;;1.52;0.40;;;;;;;10.39;100.00;100313.06;5092322;28;20045;-70
2023/12/24 08:49:59;;;;;;;0.93;0.40;;;;;;;10.49;100.00;100312.72;5083109;28;20112;-71
2023/12/24 08:52:27;;;;;;;0.52;0.30;;;;;;;10.60;100.00;100314.94;5064683;28;20037;-71
2023/12/24 08:54:54;;;;;;;0.40;0.40;;;;;;;10.65;100.00;100324.41;5062211;28;20044;-70
2023/12/24 08:57:21;;;;;;;0.40;0.32;;;;;;;10.71;100.00;100328.56;5066377;28;20464;-78
2023/12/24 08:59:48;;;;;;;0.40;0.30;;;;;;;10.74;100.00;100323.16;5064514;28;20542;-75
2023/12/24 09:02:15;;;;;;;0.30;0.30;;;;;;;10.78;100.00;100327.41;5070727;28;20044;-72
2023/12/24 09:04:46;;;;;;;0.70;0.30;;;;;;;10.81;100.00;100329.94;5068154;28;20083;-70
2023/12/24 09:07:15;;;;;;;0.73;0.30;;;;;;;10.85;100.00;100330.66;5071431;28;20793;-71
2023/12/24 09:09:42;;;;;;;0.85;0.40;;;;;;;10.86;100.00;100340.28;5071882;28;20102;-71
2023/12/24 09:12:09;;;;;;;0.40;0.30;;;;;;;10.88;100.00;100335.81;5079747;28;20519;-72
2023/12/24 09:14:36;;;;;;;0.40;0.40;;;;;;;10.88;100.00;100339.31;5085311;28;20036;-71
2023/12/24 09:17:04;;;;;;;0.55;0.50;;;;;;;10.86;100.00;100337.66;5070413;28;20048;-71
2023/12/24 09:19:31;;;;;;;0.60;0.40;;;;;;;10.84;100.00;100350.88;5070955;28;20067;-72
2023/12/24 09:21:58;;;;;;;0.88;0.60;;;;;;;10.82;100.00;100342.19;5071135;28;20048;-71
2023/12/24 09:24:25;;;;;;;1.13;0.60;;;;;;;10.80;100.00;100337.88;5090571;28;20127;-71
2023/12/24 09:26:52;;;;;;;2.05;0.50;;;;;;;10.79;100.00;100334.41;5081293;28;20154;-71
2023/12/24 09:29:21;;;;;;;0.80;0.63;;;;;;;10.77;100.00;100338.88;5061711;28;20047;-71
2023/12/24 09:31:48;;;;;;;0.60;0.60;;;;;;;10.76;100.00;100342.41;5070217;28;20063;-71
2023/12/24 09:34:15;;;;;;;0.95;0.52;;;;;;;10.75;100.00;100322.25;5078529;28;20500;-71
2023/12/24 09:36:43;;;;;;;0.52;0.50;;;;;;;10.76;100.00;100337.16;5059776;28;20056;-71
2023/12/24 09:39:10;;;;;;;0.70;0.60;;;;;;;10.75;100.00;100331.94;5051232;28;20118;-71
2023/12/24 09:41:37;;;;;;;0.60;0.60;;;;;;;10.76;100.00;100325.75;5065980;28;20539;-71
2023/12/24 09:44:08;;;;;;;1.08;0.68;;;;;;;10.78;100.00;100314.22;5069618;28;20060;-71
2023/12/24 09:46:35;;;;;;;0.70;0.57;;;;;;;10.78;100.00;100322.13;5063425;28;20103;-71
2023/12/24 09:49:02;;;;;;;0.75;0.50;;;;;;;10.80;100.00;100320.31;5065914;28;20094;-71
2023/12/24 09:51:35;;;;;;;0.77;0.57;;;;;;;10.83;100.00;100309.63;5069364;28;20048;-70
2023/12/24 09:54:04;;;;;;;1.00;0.50;;;;;;;10.85;100.00;100309.56;5069143;28;20033;-70
2023/12/24 09:56:31;;;;;;;1.17;0.50;;;;;;;10.84;100.00;100311.34;5065728;28;20068;-71
2023/12/24 09:59:00;;;;;;;0.40;0.40;;;;;;;10.86;100.00;100309.50;5069239;28;20124;-71
2023/12/24 10:01:46;;;;;;;0.73;0.60;;;;;;;10.87;100.00;100316.50;5068100;28;20052;-70
2023/12/24 10:04:14;;;;;;;0.60;0.55;;;;;;;10.90;100.00;100306.75;5065857;28;20492;-71
2023/12/24 10:06:56;;;;;;;1.08;0.65;;;;;;;10.92;100.00;100312.81;5069280;28;20042;-71
2023/12/24 10:09:41;;;;;;;0.85;0.60;;;;;;;10.92;100.00;100307.56;5069993;28;20531;-71
2023/12/24 10:12:11;;;;;;;1.13;0.77;;;;;;;10.94;100.00;100306.56;5052227;28;20152;-71
2023/12/24 10:14:40;;;;;;;1.45;0.98;;;;;;;11.00;100.00;100308.09;5069186;28;20085;-71
2023/12/24 10:17:12;;;;;;;1.08;0.98;;;;;;;11.03;100.00;100311.47;5069012;28;20055;-71
2023/12/24 10:19:39;;;;;;;4.13;3.58;;;;;;;11.03;100.00;100308.81;5067728;28;20047;-70
2023/12/24 10:22:08;;;;;;;0.85;0.80;;;;;;;11.05;100.00;100310.53;5063070;28;20520;-70
2023/12/24 10:24:41;;;;;;;3.92;3.55;;;;;;;11.05;100.00;100306.09;5065069;28;20033;-70
2023/12/24 10:27:11;;;;;;;2.55;2.35;;;;;;;11.06;100.00;100297.28;5057064;28;20540;-71
2023/12/24 10:29:41;;;;;;;2.60;2.40;;;;;;;11.09;100.00;100289.25;5084092;28;20068;-70
2023/12/24 10:32:11;;;;;;;4.63;4.13;;;;;;;11.10;100.00;100301.53;5063499;28;20040;-70
2023/12/24 10:34:39;;;;;;;2.67;2.40;;;;;;;11.10;100.00;100300.66;5066552;28;20051;-71
2023/12/24 10:37:26;;;;;;;4.70;2.47;;;;;;;11.13;100.00;100301.41;5068563;28;20057;-71
2023/12/24 10:39:54;;;;;;;2.83;2.13;;;;;;;11.11;100.00;100305.88;5062451;28;20044;-71
2023/12/24 10:42:21;;;;;;;3.50;2.20;;;;;;;11.13;100.00;100298.78;5066177;28;20047;-70
2023/12/24 10:44:48;;;;;;;4.75;3.20;;;;;;;11.11;100.00;100305.88;5066983;28;20048;-71
2023/12/24 10:47:15;;;;;;;4.97;3.55;;;;;;;11.12;100.00;100309.34;5059176;28;20069;-71
2023/12/24 10:49:42;;;;;;;4.72;3.30;;;;;;;11.13;100.00;100316.34;5059741;28;20052;-71
2023/12/24 10:52:10;;;;;;;7.03;3.83;;;;;;;11.14;100.00;100308.38;5068604;28;20064;-72
2023/12/24 10:54:40;;;;;;;7.95;5.38;;;;;;;11.18;100.00;100309.97;5066189;28;20036;-71
2023/12/24 10:57:52;;;;;;;8.43;5.55;;;;;;;11.21;100.00;100293.16;5066650;28;20059;-70
2023/12/24 11:00:20;;;;;;;8.70;5.70;;;;;;;11.22;100.00;100286.09;5066969;28;20064;-71
2023/12/24 11:02:49;;;;;;;10.98;7.05;;;;;;;11.23;100.00;100280.75;5065525;28;20096;-70
2023/12/24 11:05:46;;;;;;;10.45;6.97;;;;;;;11.27;100.00;100278.84;5063243;28;20052;-71
2023/12/24 11:08:30;;;;;;;13.10;7.78;;;;;;;11.28;100.00;100283.19;5062192;28;20064;-71
2023/12/24 11:11:03;;;;;;;11.43;7.55;;;;;;;11.32;100.00;100283.00;5063420;28;20072;-70
2023/12/24 11:13:31;;;;;;;13.77;8.57;;;;;;;11.31;100.00;100265.44;5061106;28;20110;-70
2023/12/24 11:16:01;;;;;;;11.98;7.70;;;;;;;11.34;100.00;100265.34;5076339;28;20043;-70
2023/12/24 11:18:48;;;;;;;17.10;7.35;;;;;;;11.37;100.00;100256.41;5061713;28;20041;-70
2023/12/24 11:21:21;;;;;;;11.70;8.95;;;;;;;11.41;100.00;100259.78;5064582;28;20397;-70
2023/12/24 11:24:14;;;;;;;12.20;7.38;;;;;;;11.44;100.00;100265.81;5057529;28;20040;-70
2023/12/24 11:26:51;;;;;;;12.65;7.28;;;;;;;11.49;100.00;100263.81;5066913;28;20395;-70